sensor_id;sensor_type;location;lat;lon;timestamp;P1;durP1;ratioP1;P2;durP2;ratioP2
49890;SDS011;35780;55.568;37.492;2023-03-04T00:02:08;15.95;;;6.82;;
49890;SDS011;35780;55.568;37.492;2023-03-04T00:04:34;20.65;;;7.30;;
49890;SDS011;35780;55.568;37.492;2023-03-04T00:07:00;19.80;;;8.07;;
49890;SDS011;35780;55.568;37.492;2023-03-04T00:09:25;16.75;;;7.38;;
49890;SDS011;35780;55.568;37.492;2023-03-04T00:11:51;19.73;;;8.45;;
49890;SDS011;35780;55.568;37.492;2023-03-04T00:14:16;11.63;;;5.25;;
49890;SDS011;35780;55.568;37.492;2023-03-04T00:16:42;16.83;;;6.78;;
49890;SDS011;35780;55.568;37.492;2023-03-04T00:19:08;17.02;;;6.60;;
49890;SDS011;35780;55.568;37.492;2023-03-04T00:21:34;19.30;;;7.43;;
49890;SDS011;35780;55.568;37.492;2023-03-04T00:24:00;16.70;;;7.47;;
49890;SDS011;35780;55.568;37.492;2023-03-04T00:26:26;24.20;;;8.55;;
49890;SDS011;35780;55.568;37.492;2023-03-04T00:28:51;15.88;;;8.10;;
49890;SDS011;35780;55.568;37.492;2023-03-04T00:31:17;15.98;;;5.93;;
49890;SDS011;35780;55.568;37.492;2023-03-04T00:33:42;20.98;;;8.98;;
49890;SDS011;35780;55.568;37.492;2023-03-04T00:36:08;18.63;;;8.48;;
49890;SDS011;35780;55.568;37.492;2023-03-04T00:38:34;21.60;;;8.45;;
49890;SDS011;35780;55.568;37.492;2023-03-04T00:41:00;23.23;;;10.45;;
49890;SDS011;35780;55.568;37.492;2023-03-04T00:43:25;20.17;;;9.15;;
49890;SDS011;35780;55.568;37.492;2023-03-04T00:45:51;23.92;;;9.60;;
49890;SDS011;35780;55.568;37.492;2023-03-04T00:48:16;19.88;;;8.43;;
49890;SDS011;35780;55.568;37.492;2023-03-04T00:50:43;13.15;;;6.55;;
49890;SDS011;35780;55.568;37.492;2023-03-04T00:53:09;18.65;;;6.13;;
49890;SDS011;35780;55.568;37.492;2023-03-04T00:55:35;21.30;;;7.90;;
49890;SDS011;35780;55.568;37.492;2023-03-04T00:58:00;19.55;;;9.07;;
49890;SDS011;35780;55.568;37.492;2023-03-04T01:00:26;9.55;;;4.43;;
49890;SDS011;35780;55.568;37.492;2023-03-04T01:02:52;16.15;;;7.72;;
49890;SDS011;35780;55.568;37.492;2023-03-04T01:05:17;24.20;;;6.82;;
49890;SDS011;35780;55.568;37.492;2023-03-04T01:07:43;10.48;;;5.43;;
49890;SDS011;35780;55.568;37.492;2023-03-04T01:10:09;12.20;;;5.30;;
49890;SDS011;35780;55.568;37.492;2023-03-04T01:12:37;22.92;;;7.88;;
49890;SDS011;35780;55.568;37.492;2023-03-04T01:15:04;25.40;;;9.82;;
49890;SDS011;35780;55.568;37.492;2023-03-04T01:17:30;26.05;;;10.10;;
49890;SDS011;35780;55.568;37.492;2023-03-04T01:19:56;37.80;;;11.07;;
49890;SDS011;35780;55.568;37.492;2023-03-04T01:22:21;39.05;;;12.35;;
49890;SDS011;35780;55.568;37.492;2023-03-04T01:24:47;25.23;;;11.20;;
49890;SDS011;35780;55.568;37.492;2023-03-04T01:27:12;42.25;;;12.77;;
49890;SDS011;35780;55.568;37.492;2023-03-04T01:29:38;47.85;;;11.85;;
49890;SDS011;35780;55.568;37.492;2023-03-04T01:32:04;45.72;;;13.25;;
49890;SDS011;35780;55.568;37.492;2023-03-04T01:34:29;51.17;;;12.50;;
49890;SDS011;35780;55.568;37.492;2023-03-04T01:36:55;43.15;;;12.70;;
49890;SDS011;35780;55.568;37.492;2023-03-04T01:39:20;49.95;;;13.20;;
49890;SDS011;35780;55.568;37.492;2023-03-04T01:41:46;27.67;;;10.60;;
49890;SDS011;35780;55.568;37.492;2023-03-04T01:44:12;25.38;;;8.98;;
49890;SDS011;35780;55.568;37.492;2023-03-04T01:46:37;18.42;;;8.27;;
49890;SDS011;35780;55.568;37.492;2023-03-04T01:49:06;54.53;;;10.27;;
49890;SDS011;35780;55.568;37.492;2023-03-04T01:51:31;61.10;;;10.27;;
49890;SDS011;35780;55.568;37.492;2023-03-04T01:53:57;39.63;;;11.88;;
49890;SDS011;35780;55.568;37.492;2023-03-04T01:56:23;34.42;;;10.63;;
49890;SDS011;35780;55.568;37.492;2023-03-04T02:01:36;31.60;;;11.70;;
49890;SDS011;35780;55.568;37.492;2023-03-04T02:04:02;29.40;;;11.50;;
49890;SDS011;35780;55.568;37.492;2023-03-04T02:06:28;22.58;;;9.80;;
49890;SDS011;35780;55.568;37.492;2023-03-04T02:08:54;36.63;;;13.13;;
49890;SDS011;35780;55.568;37.492;2023-03-04T02:11:19;28.35;;;12.30;;
49890;SDS011;35780;55.568;37.492;2023-03-04T02:13:45;24.90;;;11.40;;
49890;SDS011;35780;55.568;37.492;2023-03-04T02:16:10;29.05;;;13.43;;
49890;SDS011;35780;55.568;37.492;2023-03-04T02:18:36;35.42;;;11.95;;
49890;SDS011;35780;55.568;37.492;2023-03-04T02:23:46;33.03;;;13.63;;
49890;SDS011;35780;55.568;37.492;2023-03-04T02:26:26;30.33;;;14.05;;
49890;SDS011;35780;55.568;37.492;2023-03-04T02:28:53;26.98;;;11.68;;
49890;SDS011;35780;55.568;37.492;2023-03-04T02:33:49;35.65;;;14.35;;
49890;SDS011;35780;55.568;37.492;2023-03-04T02:36:16;31.95;;;15.98;;
49890;SDS011;35780;55.568;37.492;2023-03-04T02:38:41;32.65;;;15.35;;
49890;SDS011;35780;55.568;37.492;2023-03-04T02:41:08;24.98;;;10.38;;
49890;SDS011;35780;55.568;37.492;2023-03-04T02:43:37;31.42;;;11.98;;
49890;SDS011;35780;55.568;37.492;2023-03-04T02:46:02;29.13;;;13.40;;
49890;SDS011;35780;55.568;37.492;2023-03-04T02:48:28;29.60;;;14.05;;
49890;SDS011;35780;55.568;37.492;2023-03-04T02:50:54;25.05;;;11.52;;
49890;SDS011;35780;55.568;37.492;2023-03-04T02:53:19;18.38;;;8.95;;
49890;SDS011;35780;55.568;37.492;2023-03-04T02:55:45;26.05;;;11.75;;
49890;SDS011;35780;55.568;37.492;2023-03-04T02:58:11;25.55;;;10.55;;
49890;SDS011;35780;55.568;37.492;2023-03-04T03:00:38;32.67;;;14.25;;
49890;SDS011;35780;55.568;37.492;2023-03-04T03:03:03;15.13;;;7.50;;
49890;SDS011;35780;55.568;37.492;2023-03-04T03:05:30;27.52;;;12.60;;
49890;SDS011;35780;55.568;37.492;2023-03-04T03:07:57;23.95;;;10.13;;
49890;SDS011;35780;55.568;37.492;2023-03-04T03:10:23;19.98;;;8.98;;
49890;SDS011;35780;55.568;37.492;2023-03-04T03:12:48;12.65;;;7.13;;
49890;SDS011;35780;55.568;37.492;2023-03-04T03:15:14;13.32;;;6.20;;
49890;SDS011;35780;55.568;37.492;2023-03-04T03:17:40;23.17;;;10.70;;
49890;SDS011;35780;55.568;37.492;2023-03-04T03:20:06;19.13;;;8.40;;
49890;SDS011;35780;55.568;37.492;2023-03-04T03:22:32;24.73;;;10.75;;
49890;SDS011;35780;55.568;37.492;2023-03-04T03:24:58;22.58;;;10.30;;
49890;SDS011;35780;55.568;37.492;2023-03-04T03:27:23;14.57;;;7.55;;
49890;SDS011;35780;55.568;37.492;2023-03-04T03:29:49;21.45;;;8.80;;
49890;SDS011;35780;55.568;37.492;2023-03-04T03:32:14;21.25;;;7.78;;
49890;SDS011;35780;55.568;37.492;2023-03-04T03:34:40;14.43;;;8.40;;
49890;SDS011;35780;55.568;37.492;2023-03-04T03:37:06;12.75;;;6.82;;
49890;SDS011;35780;55.568;37.492;2023-03-04T03:39:31;11.77;;;6.70;;
49890;SDS011;35780;55.568;37.492;2023-03-04T03:41:57;13.75;;;6.57;;
49890;SDS011;35780;55.568;37.492;2023-03-04T03:44:22;15.07;;;7.88;;
49890;SDS011;35780;55.568;37.492;2023-03-04T03:46:48;18.35;;;8.05;;
49890;SDS011;35780;55.568;37.492;2023-03-04T03:49:13;19.38;;;9.85;;
49890;SDS011;35780;55.568;37.492;2023-03-04T03:51:41;21.88;;;9.85;;
49890;SDS011;35780;55.568;37.492;2023-03-04T03:54:07;17.63;;;10.32;;
49890;SDS011;35780;55.568;37.492;2023-03-04T03:56:32;17.60;;;8.55;;
49890;SDS011;35780;55.568;37.492;2023-03-04T03:58:58;21.67;;;10.15;;
49890;SDS011;35780;55.568;37.492;2023-03-04T04:01:24;15.90;;;9.25;;
49890;SDS011;35780;55.568;37.492;2023-03-04T04:03:49;17.30;;;10.13;;
49890;SDS011;35780;55.568;37.492;2023-03-04T04:06:15;17.92;;;8.25;;
49890;SDS011;35780;55.568;37.492;2023-03-04T04:08:41;12.48;;;7.18;;
49890;SDS011;35780;55.568;37.492;2023-03-04T04:11:08;18.52;;;8.68;;
49890;SDS011;35780;55.568;37.492;2023-03-04T04:13:34;13.50;;;7.55;;
49890;SDS011;35780;55.568;37.492;2023-03-04T04:15:59;15.75;;;7.15;;
49890;SDS011;35780;55.568;37.492;2023-03-04T04:18:25;13.93;;;6.82;;
49890;SDS011;35780;55.568;37.492;2023-03-04T04:20:51;13.27;;;8.10;;
49890;SDS011;35780;55.568;37.492;2023-03-04T04:23:17;18.17;;;7.75;;
49890;SDS011;35780;55.568;37.492;2023-03-04T04:25:42;13.10;;;5.10;;
49890;SDS011;35780;55.568;37.492;2023-03-04T04:28:08;12.25;;;6.43;;
49890;SDS011;35780;55.568;37.492;2023-03-04T04:30:34;14.43;;;7.70;;
49890;SDS011;35780;55.568;37.492;2023-03-04T04:32:59;14.88;;;7.53;;
49890;SDS011;35780;55.568;37.492;2023-03-04T04:35:26;13.30;;;6.47;;
49890;SDS011;35780;55.568;37.492;2023-03-04T04:37:52;15.65;;;7.03;;
49890;SDS011;35780;55.568;37.492;2023-03-04T04:40:18;14.40;;;8.18;;
49890;SDS011;35780;55.568;37.492;2023-03-04T04:42:43;10.77;;;6.18;;
49890;SDS011;35780;55.568;37.492;2023-03-04T04:45:09;7.28;;;4.05;;
49890;SDS011;35780;55.568;37.492;2023-03-04T04:47:35;15.23;;;7.10;;
49890;SDS011;35780;55.568;37.492;2023-03-04T04:50:00;9.48;;;5.80;;
49890;SDS011;35780;55.568;37.492;2023-03-04T04:52:28;12.13;;;6.32;;
49890;SDS011;35780;55.568;37.492;2023-03-04T04:54:54;12.20;;;7.40;;
49890;SDS011;35780;55.568;37.492;2023-03-04T04:57:19;13.88;;;6.80;;
49890;SDS011;35780;55.568;37.492;2023-03-04T04:59:45;14.18;;;8.23;;
49890;SDS011;35780;55.568;37.492;2023-03-04T05:02:10;26.00;;;12.73;;
49890;SDS011;35780;55.568;37.492;2023-03-04T05:04:38;15.40;;;8.77;;
49890;SDS011;35780;55.568;37.492;2023-03-04T05:07:03;14.18;;;6.68;;
49890;SDS011;35780;55.568;37.492;2023-03-04T05:09:29;18.92;;;11.23;;
49890;SDS011;35780;55.568;37.492;2023-03-04T05:11:54;19.15;;;10.00;;
49890;SDS011;35780;55.568;37.492;2023-03-04T05:14:20;12.80;;;6.80;;
49890;SDS011;35780;55.568;37.492;2023-03-04T05:16:46;13.25;;;6.63;;
49890;SDS011;35780;55.568;37.492;2023-03-04T05:19:12;13.15;;;6.95;;
49890;SDS011;35780;55.568;37.492;2023-03-04T05:21:37;10.57;;;6.50;;
49890;SDS011;35780;55.568;37.492;2023-03-04T05:24:03;13.98;;;6.13;;
49890;SDS011;35780;55.568;37.492;2023-03-04T05:26:29;12.45;;;6.65;;
49890;SDS011;35780;55.568;37.492;2023-03-04T05:28:54;17.00;;;7.65;;
49890;SDS011;35780;55.568;37.492;2023-03-04T05:31:22;11.43;;;5.95;;
49890;SDS011;35780;55.568;37.492;2023-03-04T05:33:48;16.25;;;5.82;;
49890;SDS011;35780;55.568;37.492;2023-03-04T05:36:13;9.77;;;5.47;;
49890;SDS011;35780;55.568;37.492;2023-03-04T05:38:39;10.40;;;3.13;;
49890;SDS011;35780;55.568;37.492;2023-03-04T05:41:05;9.85;;;4.68;;
49890;SDS011;35780;55.568;37.492;2023-03-04T05:43:31;7.72;;;4.38;;
49890;SDS011;35780;55.568;37.492;2023-03-04T05:45:59;10.63;;;4.30;;
49890;SDS011;35780;55.568;37.492;2023-03-04T05:48:26;7.45;;;4.57;;
49890;SDS011;35780;55.568;37.492;2023-03-04T05:50:56;8.00;;;4.07;;
49890;SDS011;35780;55.568;37.492;2023-03-04T05:53:23;6.35;;;3.78;;
49890;SDS011;35780;55.568;37.492;2023-03-04T05:55:49;9.55;;;4.47;;
49890;SDS011;35780;55.568;37.492;2023-03-04T05:58:15;12.65;;;4.72;;
49890;SDS011;35780;55.568;37.492;2023-03-04T06:00:41;10.07;;;4.85;;
49890;SDS011;35780;55.568;37.492;2023-03-04T06:03:10;8.30;;;4.00;;
49890;SDS011;35780;55.568;37.492;2023-03-04T06:05:39;9.27;;;4.78;;
49890;SDS011;35780;55.568;37.492;2023-03-04T06:08:04;8.85;;;3.53;;
49890;SDS011;35780;55.568;37.492;2023-03-04T06:10:30;9.88;;;4.65;;
49890;SDS011;35780;55.568;37.492;2023-03-04T06:12:55;9.88;;;4.50;;
49890;SDS011;35780;55.568;37.492;2023-03-04T06:15:21;16.15;;;4.60;;
49890;SDS011;35780;55.568;37.492;2023-03-04T06:17:46;15.25;;;6.18;;
49890;SDS011;35780;55.568;37.492;2023-03-04T06:20:12;10.30;;;4.80;;
49890;SDS011;35780;55.568;37.492;2023-03-04T06:22:37;10.70;;;4.68;;
49890;SDS011;35780;55.568;37.492;2023-03-04T06:25:03;9.40;;;4.93;;
49890;SDS011;35780;55.568;37.492;2023-03-04T06:27:29;8.05;;;4.43;;
49890;SDS011;35780;55.568;37.492;2023-03-04T06:29:55;9.75;;;5.15;;
49890;SDS011;35780;55.568;37.492;2023-03-04T06:32:20;13.30;;;5.75;;
49890;SDS011;35780;55.568;37.492;2023-03-04T06:34:46;11.20;;;4.75;;
49890;SDS011;35780;55.568;37.492;2023-03-04T06:37:11;11.07;;;4.82;;
49890;SDS011;35780;55.568;37.492;2023-03-04T06:39:37;8.30;;;4.57;;
49890;SDS011;35780;55.568;37.492;2023-03-04T06:42:02;6.38;;;3.88;;
49890;SDS011;35780;55.568;37.492;2023-03-04T06:44:28;13.10;;;4.28;;
49890;SDS011;35780;55.568;37.492;2023-03-04T06:46:53;8.93;;;4.60;;
49890;SDS011;35780;55.568;37.492;2023-03-04T06:49:19;8.80;;;4.93;;
49890;SDS011;35780;55.568;37.492;2023-03-04T06:51:44;6.18;;;3.97;;
49890;SDS011;35780;55.568;37.492;2023-03-04T06:54:10;8.02;;;4.20;;
49890;SDS011;35780;55.568;37.492;2023-03-04T06:56:35;8.52;;;4.78;;
49890;SDS011;35780;55.568;37.492;2023-03-04T06:59:01;12.30;;;5.15;;
49890;SDS011;35780;55.568;37.492;2023-03-04T07:01:27;13.07;;;5.85;;
49890;SDS011;35780;55.568;37.492;2023-03-04T07:03:53;15.05;;;4.53;;
49890;SDS011;35780;55.568;37.492;2023-03-04T07:06:20;7.68;;;4.35;;
49890;SDS011;35780;55.568;37.492;2023-03-04T07:08:49;11.02;;;4.28;;
49890;SDS011;35780;55.568;37.492;2023-03-04T07:11:15;7.38;;;3.78;;
49890;SDS011;35780;55.568;37.492;2023-03-04T07:13:41;9.52;;;4.20;;
49890;SDS011;35780;55.568;37.492;2023-03-04T07:16:08;10.85;;;4.30;;
49890;SDS011;35780;55.568;37.492;2023-03-04T07:18:35;11.38;;;3.85;;
49890;SDS011;35780;55.568;37.492;2023-03-04T07:21:01;6.25;;;3.58;;
49890;SDS011;35780;55.568;37.492;2023-03-04T07:23:27;5.90;;;3.50;;
49890;SDS011;35780;55.568;37.492;2023-03-04T07:25:53;6.80;;;3.83;;
49890;SDS011;35780;55.568;37.492;2023-03-04T07:28:18;8.43;;;4.07;;
49890;SDS011;35780;55.568;37.492;2023-03-04T07:30:44;9.30;;;3.63;;
49890;SDS011;35780;55.568;37.492;2023-03-04T07:33:09;8.52;;;4.47;;
49890;SDS011;35780;55.568;37.492;2023-03-04T07:35:35;13.95;;;4.55;;
49890;SDS011;35780;55.568;37.492;2023-03-04T07:38:01;10.82;;;5.22;;
49890;SDS011;35780;55.568;37.492;2023-03-04T07:40:26;10.68;;;4.65;;
49890;SDS011;35780;55.568;37.492;2023-03-04T07:42:53;7.88;;;3.60;;
49890;SDS011;35780;55.568;37.492;2023-03-04T07:45:20;10.25;;;4.65;;
49890;SDS011;35780;55.568;37.492;2023-03-04T07:47:45;6.85;;;4.10;;
49890;SDS011;35780;55.568;37.492;2023-03-04T07:50:11;9.05;;;4.22;;
49890;SDS011;35780;55.568;37.492;2023-03-04T07:52:37;6.75;;;3.05;;
49890;SDS011;35780;55.568;37.492;2023-03-04T07:55:08;5.88;;;3.17;;
49890;SDS011;35780;55.568;37.492;2023-03-04T07:57:34;6.07;;;3.08;;
49890;SDS011;35780;55.568;37.492;2023-03-04T08:00:00;9.18;;;3.22;;
49890;SDS011;35780;55.568;37.492;2023-03-04T08:02:25;5.70;;;2.83;;
49890;SDS011;35780;55.568;37.492;2023-03-04T08:04:51;10.65;;;3.67;;
49890;SDS011;35780;55.568;37.492;2023-03-04T08:07:16;7.07;;;2.65;;
49890;SDS011;35780;55.568;37.492;2023-03-04T08:09:42;8.18;;;3.72;;
49890;SDS011;35780;55.568;37.492;2023-03-04T08:12:07;7.45;;;4.63;;
49890;SDS011;35780;55.568;37.492;2023-03-04T08:14:33;8.40;;;3.50;;
49890;SDS011;35780;55.568;37.492;2023-03-04T08:17:01;8.48;;;3.92;;
49890;SDS011;35780;55.568;37.492;2023-03-04T08:19:27;7.22;;;3.85;;
49890;SDS011;35780;55.568;37.492;2023-03-04T08:21:52;12.63;;;3.78;;
49890;SDS011;35780;55.568;37.492;2023-03-04T08:24:18;5.93;;;3.13;;
49890;SDS011;35780;55.568;37.492;2023-03-04T08:26:45;5.35;;;2.38;;
49890;SDS011;35780;55.568;37.492;2023-03-04T08:29:13;5.95;;;3.60;;
49890;SDS011;35780;55.568;37.492;2023-03-04T08:31:41;6.80;;;3.28;;
49890;SDS011;35780;55.568;37.492;2023-03-04T08:34:08;7.45;;;3.58;;
49890;SDS011;35780;55.568;37.492;2023-03-04T08:36:34;5.72;;;2.45;;
49890;SDS011;35780;55.568;37.492;2023-03-04T08:39:00;7.45;;;3.40;;
49890;SDS011;35780;55.568;37.492;2023-03-04T08:41:27;7.47;;;2.58;;
49890;SDS011;35780;55.568;37.492;2023-03-04T08:43:53;7.30;;;4.05;;
49890;SDS011;35780;55.568;37.492;2023-03-04T08:46:18;8.55;;;3.08;;
49890;SDS011;35780;55.568;37.492;2023-03-04T08:48:44;8.15;;;3.53;;
49890;SDS011;35780;55.568;37.492;2023-03-04T08:51:12;11.73;;;3.30;;
49890;SDS011;35780;55.568;37.492;2023-03-04T08:53:39;6.20;;;3.03;;
49890;SDS011;35780;55.568;37.492;2023-03-04T08:56:05;5.35;;;2.63;;
49890;SDS011;35780;55.568;37.492;2023-03-04T08:58:31;4.00;;;2.00;;
49890;SDS011;35780;55.568;37.492;2023-03-04T09:00:57;6.00;;;1.92;;
49890;SDS011;35780;55.568;37.492;2023-03-04T09:03:23;3.17;;;1.63;;
49890;SDS011;35780;55.568;37.492;2023-03-04T09:05:49;7.97;;;1.52;;
49890;SDS011;35780;55.568;37.492;2023-03-04T09:08:15;4.10;;;1.88;;
49890;SDS011;35780;55.568;37.492;2023-03-04T09:10:41;3.50;;;1.55;;
49890;SDS011;35780;55.568;37.492;2023-03-04T09:13:06;4.30;;;1.55;;
49890;SDS011;35780;55.568;37.492;2023-03-04T09:15:32;3.00;;;1.33;;
49890;SDS011;35780;55.568;37.492;2023-03-04T09:18:01;5.80;;;1.77;;
49890;SDS011;35780;55.568;37.492;2023-03-04T09:20:27;4.05;;;1.77;;
49890;SDS011;35780;55.568;37.492;2023-03-04T09:22:53;3.63;;;1.60;;
49890;SDS011;35780;55.568;37.492;2023-03-04T09:25:19;3.63;;;2.22;;
49890;SDS011;35780;55.568;37.492;2023-03-04T09:27:44;5.15;;;1.85;;
49890;SDS011;35780;55.568;37.492;2023-03-04T09:30:10;5.05;;;1.35;;
49890;SDS011;35780;55.568;37.492;2023-03-04T09:32:36;3.97;;;1.65;;
49890;SDS011;35780;55.568;37.492;2023-03-04T09:35:02;3.55;;;1.67;;
49890;SDS011;35780;55.568;37.492;2023-03-04T09:37:28;3.67;;;1.63;;
49890;SDS011;35780;55.568;37.492;2023-03-04T09:39:54;5.30;;;1.73;;
49890;SDS011;35780;55.568;37.492;2023-03-04T09:42:23;3.83;;;1.98;;
49890;SDS011;35780;55.568;37.492;2023-03-04T09:44:54;3.75;;;2.08;;
49890;SDS011;35780;55.568;37.492;2023-03-04T09:47:20;8.75;;;3.17;;
49890;SDS011;35780;55.568;37.492;2023-03-04T09:49:56;6.70;;;2.55;;
49890;SDS011;35780;55.568;37.492;2023-03-04T09:55:24;27.75;;;8.30;;
49890;SDS011;35780;55.568;37.492;2023-03-04T10:05:52;13.70;;;5.93;;
49890;SDS011;35780;55.568;37.492;2023-03-04T10:14:38;3.97;;;2.60;;
49890;SDS011;35780;55.568;37.492;2023-03-04T10:17:10;9.60;;;2.88;;
49890;SDS011;35780;55.568;37.492;2023-03-04T10:25:23;5.85;;;3.13;;
49890;SDS011;35780;55.568;37.492;2023-03-04T10:33:07;5.93;;;2.97;;
49890;SDS011;35780;55.568;37.492;2023-03-04T10:35:37;7.03;;;2.70;;
49890;SDS011;35780;55.568;37.492;2023-03-04T10:38:03;7.38;;;2.72;;
49890;SDS011;35780;55.568;37.492;2023-03-04T10:40:29;5.13;;;2.75;;
49890;SDS011;35780;55.568;37.492;2023-03-04T10:43:02;4.65;;;2.47;;
49890;SDS011;35780;55.568;37.492;2023-03-04T10:45:32;9.95;;;2.97;;
49890;SDS011;35780;55.568;37.492;2023-03-04T10:48:03;9.45;;;3.25;;
49890;SDS011;35780;55.568;37.492;2023-03-04T10:50:29;7.88;;;3.63;;
49890;SDS011;35780;55.568;37.492;2023-03-04T10:52:54;6.63;;;2.97;;
49890;SDS011;35780;55.568;37.492;2023-03-04T10:55:22;9.18;;;3.40;;
49890;SDS011;35780;55.568;37.492;2023-03-04T10:57:50;9.32;;;4.28;;
49890;SDS011;35780;55.568;37.492;2023-03-04T11:02:46;3.70;;;1.88;;
49890;SDS011;35780;55.568;37.492;2023-03-04T11:05:17;3.78;;;2.28;;
49890;SDS011;35780;55.568;37.492;2023-03-04T11:07:58;5.60;;;2.60;;
49890;SDS011;35780;55.568;37.492;2023-03-04T11:13:00;10.55;;;3.60;;
49890;SDS011;35780;55.568;37.492;2023-03-04T11:15:29;5.53;;;2.50;;
49890;SDS011;35780;55.568;37.492;2023-03-04T11:18:02;4.25;;;2.88;;
49890;SDS011;35780;55.568;37.492;2023-03-04T11:20:31;7.93;;;3.65;;
49890;SDS011;35780;55.568;37.492;2023-03-04T11:23:00;7.82;;;5.10;;
49890;SDS011;35780;55.568;37.492;2023-03-04T11:31:00;7.47;;;4.72;;
49890;SDS011;35780;55.568;37.492;2023-03-04T11:38:36;6.57;;;3.67;;
49890;SDS011;35780;55.568;37.492;2023-03-04T11:41:05;4.30;;;2.90;;
49890;SDS011;35780;55.568;37.492;2023-03-04T11:43:34;7.10;;;3.15;;
49890;SDS011;35780;55.568;37.492;2023-03-04T11:48:50;7.10;;;2.92;;
49890;SDS011;35780;55.568;37.492;2023-03-04T11:57:21;8.05;;;4.13;;
49890;SDS011;35780;55.568;37.492;2023-03-04T12:02:47;7.07;;;3.38;;
49890;SDS011;35780;55.568;37.492;2023-03-04T12:05:31;8.60;;;4.95;;
49890;SDS011;35780;55.568;37.492;2023-03-04T12:08:12;5.68;;;3.25;;
49890;SDS011;35780;55.568;37.492;2023-03-04T12:22:02;6.30;;;3.92;;
49890;SDS011;35780;55.568;37.492;2023-03-04T12:41:05;6.72;;;4.22;;
49890;SDS011;35780;55.568;37.492;2023-03-04T12:43:48;12.60;;;5.90;;
49890;SDS011;35780;55.568;37.492;2023-03-04T12:54:43;8.68;;;4.93;;
49890;SDS011;35780;55.568;37.492;2023-03-04T12:59:49;8.13;;;4.38;;
49890;SDS011;35780;55.568;37.492;2023-03-04T13:08:03;8.35;;;4.07;;
49890;SDS011;35780;55.568;37.492;2023-03-04T13:10:43;9.55;;;3.97;;
49890;SDS011;35780;55.568;37.492;2023-03-04T13:16:23;9.50;;;4.53;;
49890;SDS011;35780;55.568;37.492;2023-03-04T13:18:58;7.65;;;3.83;;
49890;SDS011;35780;55.568;37.492;2023-03-04T13:21:25;7.38;;;3.42;;
49890;SDS011;35780;55.568;37.492;2023-03-04T13:23:52;10.60;;;4.93;;
49890;SDS011;35780;55.568;37.492;2023-03-04T13:26:20;8.50;;;4.50;;
49890;SDS011;35780;55.568;37.492;2023-03-04T13:28:51;6.03;;;2.97;;
49890;SDS011;35780;55.568;37.492;2023-03-04T13:31:57;7.40;;;3.97;;
49890;SDS011;35780;55.568;37.492;2023-03-04T13:37:34;9.63;;;4.93;;
49890;SDS011;35780;55.568;37.492;2023-03-04T13:40:42;8.70;;;3.95;;
49890;SDS011;35780;55.568;37.492;2023-03-04T13:42:53;11.20;;;4.47;;
49890;SDS011;35780;55.568;37.492;2023-03-04T13:45:29;9.27;;;4.13;;
49890;SDS011;35780;55.568;37.492;2023-03-04T13:47:55;6.85;;;2.92;;
49890;SDS011;35780;55.568;37.492;2023-03-04T13:50:40;7.13;;;4.22;;
49890;SDS011;35780;55.568;37.492;2023-03-04T13:53:29;7.63;;;4.72;;
49890;SDS011;35780;55.568;37.492;2023-03-04T14:03:58;10.23;;;5.35;;
49890;SDS011;35780;55.568;37.492;2023-03-04T14:06:26;12.32;;;6.22;;
49890;SDS011;35780;55.568;37.492;2023-03-04T14:08:53;9.15;;;5.28;;
49890;SDS011;35780;55.568;37.492;2023-03-04T14:11:34;10.07;;;5.38;;
49890;SDS011;35780;55.568;37.492;2023-03-04T14:14:06;9.25;;;5.78;;
49890;SDS011;35780;55.568;37.492;2023-03-04T14:16:37;10.00;;;5.70;;
49890;SDS011;35780;55.568;37.492;2023-03-04T14:19:05;8.05;;;5.07;;
49890;SDS011;35780;55.568;37.492;2023-03-04T14:21:36;9.73;;;5.78;;
49890;SDS011;35780;55.568;37.492;2023-03-04T14:24:06;11.60;;;5.70;;
49890;SDS011;35780;55.568;37.492;2023-03-04T14:26:35;12.63;;;5.00;;
49890;SDS011;35780;55.568;37.492;2023-03-04T14:29:01;6.80;;;4.72;;
49890;SDS011;35780;55.568;37.492;2023-03-04T14:31:28;12.18;;;6.57;;
49890;SDS011;35780;55.568;37.492;2023-03-04T14:33:56;10.18;;;6.47;;
49890;SDS011;35780;55.568;37.492;2023-03-04T14:36:31;11.93;;;7.03;;
49890;SDS011;35780;55.568;37.492;2023-03-04T14:39:01;10.70;;;5.95;;
49890;SDS011;35780;55.568;37.492;2023-03-04T14:41:33;10.25;;;6.40;;
49890;SDS011;35780;55.568;37.492;2023-03-04T14:44:05;12.18;;;6.30;;
49890;SDS011;35780;55.568;37.492;2023-03-04T14:46:37;11.35;;;7.18;;
49890;SDS011;35780;55.568;37.492;2023-03-04T14:49:11;11.45;;;7.63;;
49890;SDS011;35780;55.568;37.492;2023-03-04T14:51:42;10.80;;;6.88;;
49890;SDS011;35780;55.568;37.492;2023-03-04T14:54:37;12.63;;;7.15;;
49890;SDS011;35780;55.568;37.492;2023-03-04T14:57:19;10.63;;;7.47;;
49890;SDS011;35780;55.568;37.492;2023-03-04T14:59:48;9.98;;;7.00;;
49890;SDS011;35780;55.568;37.492;2023-03-04T15:04:56;10.00;;;7.25;;
49890;SDS011;35780;55.568;37.492;2023-03-04T15:07:30;9.77;;;6.68;;
49890;SDS011;35780;55.568;37.492;2023-03-04T15:09:59;10.30;;;7.03;;
49890;SDS011;35780;55.568;37.492;2023-03-04T15:12:29;14.63;;;9.18;;
49890;SDS011;35780;55.568;37.492;2023-03-04T15:14:57;10.70;;;6.60;;
49890;SDS011;35780;55.568;37.492;2023-03-04T15:17:27;11.35;;;7.78;;
49890;SDS011;35780;55.568;37.492;2023-03-04T15:22:32;13.20;;;9.90;;
49890;SDS011;35780;55.568;37.492;2023-03-04T15:24:58;14.68;;;8.70;;
49890;SDS011;35780;55.568;37.492;2023-03-04T15:27:24;12.07;;;6.32;;
49890;SDS011;35780;55.568;37.492;2023-03-04T15:29:51;11.93;;;8.35;;
49890;SDS011;35780;55.568;37.492;2023-03-04T15:32:22;14.07;;;8.88;;
49890;SDS011;35780;55.568;37.492;2023-03-04T15:34:51;23.08;;;12.70;;
49890;SDS011;35780;55.568;37.492;2023-03-04T15:37:24;13.98;;;9.85;;
49890;SDS011;35780;55.568;37.492;2023-03-04T15:39:51;12.85;;;9.63;;
49890;SDS011;35780;55.568;37.492;2023-03-04T15:42:17;12.85;;;8.98;;
49890;SDS011;35780;55.568;37.492;2023-03-04T15:44:43;10.45;;;6.40;;
49890;SDS011;35780;55.568;37.492;2023-03-04T15:47:09;12.88;;;8.27;;
49890;SDS011;35780;55.568;37.492;2023-03-04T15:49:41;12.57;;;8.68;;
49890;SDS011;35780;55.568;37.492;2023-03-04T15:52:18;10.55;;;7.30;;
49890;SDS011;35780;55.568;37.492;2023-03-04T15:54:44;12.32;;;7.90;;
49890;SDS011;35780;55.568;37.492;2023-03-04T15:57:20;14.25;;;10.13;;
49890;SDS011;35780;55.568;37.492;2023-03-04T15:59:48;15.85;;;8.00;;
49890;SDS011;35780;55.568;37.492;2023-03-04T16:02:14;11.63;;;8.60;;
49890;SDS011;35780;55.568;37.492;2023-03-04T16:04:44;13.63;;;9.13;;
49890;SDS011;35780;55.568;37.492;2023-03-04T16:07:11;10.25;;;6.47;;
49890;SDS011;35780;55.568;37.492;2023-03-04T16:09:41;11.15;;;8.63;;
49890;SDS011;35780;55.568;37.492;2023-03-04T16:12:08;16.95;;;10.02;;
49890;SDS011;35780;55.568;37.492;2023-03-04T16:14:38;10.50;;;6.10;;
49890;SDS011;35780;55.568;37.492;2023-03-04T16:17:03;12.90;;;8.00;;
49890;SDS011;35780;55.568;37.492;2023-03-04T16:19:29;10.20;;;7.70;;
49890;SDS011;35780;55.568;37.492;2023-03-04T16:21:54;8.27;;;5.50;;
49890;SDS011;35780;55.568;37.492;2023-03-04T16:24:20;10.05;;;6.90;;
49890;SDS011;35780;55.568;37.492;2023-03-04T16:26:46;10.43;;;7.30;;
49890;SDS011;35780;55.568;37.492;2023-03-04T16:29:12;10.15;;;6.70;;
49890;SDS011;35780;55.568;37.492;2023-03-04T16:31:37;10.05;;;6.43;;
49890;SDS011;35780;55.568;37.492;2023-03-04T16:34:03;13.20;;;7.72;;
49890;SDS011;35780;55.568;37.492;2023-03-04T16:36:29;11.43;;;7.60;;